Time;durP1;ratioP1;P1;durP2;ratioP2;P2;SDS_P1;SDS_P2;PMS_P1;PMS_P2;Temp;Humidity;BMP_temperature;BMP_pressure;BME280_temperature;BME280_humidity;BME280_pressure;Samples;Min_cycle;Max_cycle;Signal;HPM_P1;HPM_P2
2024/02/15 00:01:32;;;;;;;34.60;32.50;;;;;;;-143.39;100.00;64013.03;4952357;28;20665;-76
2024/02/15 00:03:59;;;;;;;36.10;33.47;;;;;;;-143.39;100.00;64013.03;4953119;28;20437;-76
2024/02/15 00:06:26;;;;;;;37.17;34.78;;;;;;;-143.39;100.00;64013.03;4953677;28;20055;-78
2024/02/15 00:08:58;;;;;;;36.83;34.45;;;;;;;-143.39;100.00;64013.03;4945597;28;20137;-76
2024/02/15 00:11:25;;;;;;;39.42;36.92;;;;;;;-143.39;100.00;64013.03;4951678;28;20138;-77
2024/02/15 00:13:52;;;;;;;36.50;33.97;;;;;;;-143.39;100.00;64013.03;4948543;28;20721;-76
2024/02/15 00:16:19;;;;;;;36.78;34.25;;;;;;;-143.39;100.00;64013.03;4934405;29;20056;-77
2024/02/15 00:18:47;;;;;;;36.67;33.38;;;;;;;-143.39;100.00;64013.03;4950679;29;20061;-77
2024/02/15 00:21:14;;;;;;;51.47;48.28;;;;;;;-143.39;100.00;64013.03;4948672;28;20059;-76
2024/02/15 00:23:44;;;;;;;53.40;50.20;;;;;;;-143.39;100.00;64013.03;4952545;28;20054;-77
2024/02/15 00:26:11;;;;;;;48.42;45.33;;;;;;;-143.39;100.00;64013.03;4943441;28;20058;-77
2024/02/15 00:28:38;;;;;;;49.78;46.58;;;;;;;-143.39;100.00;64013.03;4945821;29;20055;-77
2024/02/15 00:31:19;;;;;;;37.83;34.90;;;;;;;-143.39;100.00;64013.03;4942830;28;20154;-78
2024/02/15 00:34:10;;;;;;;35.00;32.50;;;;;;;-143.39;100.00;64013.03;4948848;29;20051;-78
2024/02/15 00:36:45;;;;;;;31.85;29.15;;;;;;;-143.39;100.00;64013.03;4949698;29;20051;-77
2024/02/15 00:39:33;;;;;;;32.35;29.70;;;;;;;-143.39;100.00;64013.03;4947636;29;20051;-78
2024/02/15 00:42:05;;;;;;;34.10;31.60;;;;;;;-143.39;100.00;64013.03;4939511;29;20445;-79
2024/02/15 00:44:32;;;;;;;28.95;26.95;;;;;;;-143.39;100.00;64013.03;4952611;28;20047;-76
2024/02/15 00:47:07;;;;;;;31.42;29.15;;;;;;;-143.39;100.00;64013.03;4952773;29;20059;-77
2024/02/15 00:49:35;;;;;;;32.78;30.27;;;;;;;-143.39;100.00;64013.03;4943381;29;20048;-78
2024/02/15 00:52:04;;;;;;;32.55;30.15;;;;;;;-143.39;100.00;64013.03;4946066;28;20059;-76
2024/02/15 00:54:31;;;;;;;29.52;27.45;;;;;;;-143.39;100.00;64013.03;4950115;29;20509;-77
2024/02/15 00:57:00;;;;;;;30.65;28.45;;;;;;;-143.39;100.00;64013.03;4952167;28;20426;-77
2024/02/15 00:59:35;;;;;;;29.70;27.40;;;;;;;-143.39;100.00;64013.03;4943497;28;20657;-76
2024/02/15 01:02:03;;;;;;;33.22;30.42;;;;;;;-143.39;100.00;64013.03;4947949;28;20099;-77
2024/02/15 01:04:32;;;;;;;33.55;31.05;;;;;;;-143.39;100.00;64013.03;4951591;29;20052;-77
2024/02/15 01:07:01;;;;;;;34.22;31.80;;;;;;;-143.39;100.00;64013.03;4952754;28;20055;-76
2024/02/15 01:09:30;;;;;;;29.27;27.17;;;;;;;-143.39;100.00;64013.03;4949406;29;20083;-76
2024/02/15 01:11:57;;;;;;;31.70;29.40;;;;;;;-143.39;100.00;64013.03;4951109;29;20139;-76
2024/02/15 01:14:35;;;;;;;32.47;30.17;;;;;;;-143.39;100.00;64013.03;4944045;28;20088;-76
2024/02/15 01:17:17;;;;;;;35.40;32.65;;;;;;;-143.39;100.00;64013.03;4946078;29;20727;-76
2024/02/15 01:19:44;;;;;;;31.88;29.48;;;;;;;-143.39;100.00;64013.03;4947675;29;20532;-76
2024/02/15 01:22:12;;;;;;;31.38;29.08;;;;;;;-143.39;100.00;64013.03;4944446;29;20792;-76
2024/02/15 01:24:40;;;;;;;33.10;30.70;;;;;;;-143.39;100.00;64013.03;4947610;29;20067;-76
2024/02/15 01:27:08;;;;;;;33.22;30.73;;;;;;;-143.39;100.00;64013.03;4952666;29;20055;-77
2024/02/15 01:29:36;;;;;;;38.08;35.08;;;;;;;-143.39;100.00;64013.03;4933855;29;20744;-77
2024/02/15 01:32:05;;;;;;;41.03;38.22;;;;;;;-143.39;100.00;64013.03;4947021;29;20059;-76
2024/02/15 01:34:32;;;;;;;44.67;41.33;;;;;;;-143.39;100.00;64013.03;4951978;29;20114;-76
2024/02/15 01:36:59;;;;;;;54.00;50.13;;;;;;;-143.39;100.00;64013.03;4948404;28;20512;-76
2024/02/15 01:39:26;;;;;;;48.80;45.30;;;;;;;-143.39;100.00;64013.03;4952457;28;20057;-76
2024/02/15 01:41:56;;;;;;;52.10;48.58;;;;;;;-143.39;100.00;64013.03;4952645;28;20051;-76
2024/02/15 01:44:26;;;;;;;51.47;48.13;;;;;;;-143.39;100.00;64013.03;4943921;29;20115;-77
2024/02/15 01:46:54;;;;;;;49.75;46.42;;;;;;;-143.39;100.00;64013.03;4950559;29;20106;-76
2024/02/15 01:49:29;;;;;;;50.88;47.38;;;;;;;-143.39;100.00;64013.03;4952470;28;20422;-77
2024/02/15 01:51:58;;;;;;;58.42;54.42;;;;;;;-143.39;100.00;64013.03;4951118;29;20544;-76
2024/02/15 01:54:26;;;;;;;56.97;53.20;;;;;;;-143.39;100.00;64013.03;4948262;28;20631;-77
2024/02/15 01:56:55;;;;;;;42.38;39.53;;;;;;;-143.39;100.00;64013.03;4948250;28;20056;-77
2024/02/15 01:59:26;;;;;;;46.70;43.70;;;;;;;-143.39;100.00;64013.03;4947300;28;20055;-77
2024/02/15 02:02:03;;;;;;;33.08;30.65;;;;;;;-143.39;100.00;64013.03;4948415;29;20046;-78
2024/02/15 02:04:31;;;;;;;35.22;32.83;;;;;;;-143.39;100.00;64013.03;4947558;28;20058;-77
2024/02/15 02:07:00;;;;;;;33.10;30.80;;;;;;;-143.39;100.00;64013.03;4947353;28;20063;-77
2024/02/15 02:09:30;;;;;;;34.22;31.83;;;;;;;-143.39;100.00;64013.03;4951448;29;20055;-77
2024/02/15 02:12:01;;;;;;;32.50;30.20;;;;;;;-143.39;100.00;64013.03;4947358;29;20051;-77
2024/02/15 02:14:29;;;;;;;33.42;31.05;;;;;;;-143.39;100.00;64013.03;4946162;28;20058;-77
2024/02/15 02:17:14;;;;;;;35.53;33.05;;;;;;;-143.39;100.00;64013.03;4948592;28;20083;-78
2024/02/15 02:19:43;;;;;;;34.80;32.30;;;;;;;-143.39;100.00;64013.03;4949067;28;20611;-78
2024/02/15 02:22:13;;;;;;;33.75;31.27;;;;;;;-143.39;100.00;64013.03;4932399;29;20576;-78
2024/02/15 02:24:55;;;;;;;37.50;34.75;;;;;;;-143.39;100.00;64013.03;4949705;29;20540;-77
2024/02/15 02:27:39;;;;;;;37.53;34.87;;;;;;;-143.39;100.00;64013.03;4949585;29;20039;-77
2024/02/15 02:30:29;;;;;;;34.45;31.85;;;;;;;-143.39;100.00;64013.03;4951711;29;20804;-77
2024/02/15 02:33:01;;;;;;;31.15;28.85;;;;;;;-143.39;100.00;64013.03;4950918;28;20555;-75
2024/02/15 02:35:29;;;;;;;;;;;;;;;-143.39;100.00;64013.03;4951150;29;20062;-76
2024/02/15 02:38:00;;;;;;;32.05;29.75;;;;;;;-143.39;100.00;64013.03;4950892;29;19929;-77
2024/02/15 02:40:45;;;;;;;35.13;32.63;;;;;;;-143.39;100.00;64013.03;4951629;29;20410;-78
2024/02/15 02:43:12;;;;;;;33.10;30.80;;;;;;;-143.39;100.00;64013.03;4945913;28;20067;-76
2024/02/15 02:45:45;;;;;;;32.42;30.05;;;;;;;-143.39;100.00;64013.03;4950430;29;20841;-77
2024/02/15 02:48:12;;;;;;;33.20;30.90;;;;;;;-143.39;100.00;64013.03;4949370;28;20709;-77
2024/02/15 02:51:04;;;;;;;34.97;32.38;;;;;;;-143.39;100.00;64013.03;4949577;28;20047;-76
2024/02/15 02:53:36;;;;;;;34.20;31.80;;;;;;;-143.39;100.00;64013.03;4947331;29;20054;-77
2024/02/15 02:56:05;;;;;;;35.00;32.55;;;;;;;-143.39;100.00;64013.03;4950559;28;20047;-79
2024/02/15 02:58:32;;;;;;;34.15;31.65;;;;;;;-143.39;100.00;64013.03;4946274;28;20062;-77
2024/02/15 03:01:01;;;;;;;35.15;32.60;;;;;;;-143.39;100.00;64013.03;4943247;29;20051;-76
2024/02/15 03:03:28;;;;;;;31.73;29.42;;;;;;;-143.39;100.00;64013.03;4938100;29;22106;-77
2024/02/15 03:06:02;;;;;;;37.38;34.58;;;;;;;-143.39;100.00;64013.03;4950108;29;20047;-77
2024/02/15 03:08:31;;;;;;;33.15;30.65;;;;;;;-143.39;100.00;64013.03;4945894;28;20497;-78
2024/02/15 03:11:02;;;;;;;35.90;33.30;;;;;;;-143.39;100.00;64013.03;4950007;29;20051;-77
2024/02/15 03:13:30;;;;;;;38.75;35.80;;;;;;;-143.39;100.00;64013.03;4950029;29;20118;-77
2024/02/15 03:16:06;;;;;;;35.80;33.30;;;;;;;-143.39;100.00;64013.03;4950526;29;20049;-77
2024/02/15 03:18:33;;;;;;;36.88;34.17;;;;;;;-143.39;100.00;64013.03;4944843;28;20052;-76
2024/02/15 03:21:05;;;;;;;36.03;33.38;;;;;;;-143.39;100.00;64013.03;4944340;28;20422;-77
2024/02/15 03:23:33;;;;;;;36.67;34.05;;;;;;;-143.39;100.00;64013.03;4939845;29;20114;-77
2024/02/15 03:26:12;;;;;;;37.08;34.28;;;;;;;-143.39;100.00;64013.03;4951272;28;20055;-77
2024/02/15 03:28:44;;;;;;;38.10;35.20;;;;;;;-143.39;100.00;64013.03;4951398;28;20051;-78
2024/02/15 03:31:13;;;;;;;35.33;32.72;;;;;;;-143.39;100.00;64013.03;4953412;28;20584;-77
2024/02/15 03:33:43;;;;;;;32.60;30.20;;;;;;;-143.39;100.00;64013.03;4954197;29;20058;-78
2024/02/15 03:36:15;;;;;;;30.70;28.50;;;;;;;-143.39;100.00;64013.03;4951230;28;20047;-77
2024/02/15 03:38:44;;;;;;;36.92;34.28;;;;;;;-143.39;100.00;64013.03;4954304;28;20134;-76
2024/02/15 03:41:14;;;;;;;36.65;33.95;;;;;;;-143.39;100.00;64013.03;4953915;28;20055;-77
2024/02/15 03:43:42;;;;;;;31.17;28.98;;;;;;;-143.39;100.00;64013.03;4953555;28;20050;-77
2024/02/15 03:46:12;;;;;;;29.80;27.60;;;;;;;-143.39;100.00;64013.03;4953603;29;20049;-77
2024/02/15 03:48:40;;;;;;;33.13;30.75;;;;;;;-143.39;100.00;64013.03;4942756;29;20043;-77
2024/02/15 03:51:10;;;;;;;31.33;29.05;;;;;;;-143.39;100.00;64013.03;4949153;29;20055;-76
2024/02/15 03:53:37;;;;;;;32.83;30.42;;;;;;;-143.39;100.00;64013.03;4948324;29;20047;-78
2024/02/15 03:56:06;;;;;;;30.05;27.95;;;;;;;-143.39;100.00;64013.03;4952015;28;20072;-77
2024/02/15 03:58:37;;;;;;;33.85;31.35;;;;;;;-143.39;100.00;64013.03;4946886;29;20058;-76
2024/02/15 04:01:06;;;;;;;28.15;25.95;;;;;;;-143.39;100.00;64013.03;4946849;28;20055;-77
2024/02/15 04:03:40;;;;;;;29.85;27.20;;;;;;;-143.39;100.00;64013.03;4950317;29;20052;-77
2024/02/15 04:06:13;;;;;;;30.15;27.75;;;;;;;-143.39;100.00;64013.03;4952313;29;20074;-77
2024/02/15 04:08:40;;;;;;;37.35;34.75;;;;;;;-143.39;100.00;64013.03;4949776;29;20048;-76
2024/02/15 04:11:10;;;;;;;73.85;69.13;;;;;;;-143.39;100.00;64013.03;4953196;28;20051;-78
2024/02/15 04:13:37;;;;;;;61.90;57.80;;;;;;;-143.39;100.00;64013.03;4950294;28;20058;-77
2024/02/15 04:16:06;;;;;;;64.95;61.05;;;;;;;-143.39;100.00;64013.03;4953658;29;20769;-77
2024/02/15 04:18:38;;;;;;;55.92;52.28;;;;;;;-143.39;100.00;64013.03;4951603;28;20055;-78
2024/02/15 04:21:07;;;;;;;28.15;25.85;;;;;;;-143.39;100.00;64013.03;4951870;29;20055;-77
2024/02/15 04:23:35;;;;;;;30.02;27.73;;;;;;;-143.39;100.00;64013.03;4953381;29;20107;-77
2024/02/15 04:26:13;;;;;;;49.83;46.63;;;;;;;-143.39;100.00;64013.03;4953261;29;20139;-77
2024/02/15 04:28:41;;;;;;;45.67;42.88;;;;;;;-143.39;100.00;64013.03;4950292;28;20090;-78
2024/02/15 04:31:09;;;;;;;31.02;28.73;;;;;;;-143.39;100.00;64013.03;4947421;28;20166;-78
2024/02/15 04:33:37;;;;;;;30.58;28.23;;;;;;;-143.39;100.00;64013.03;4953319;29;20130;-78
2024/02/15 04:36:06;;;;;;;29.00;26.73;;;;;;;-143.39;100.00;64013.03;4952333;28;20055;-77
2024/02/15 04:38:36;;;;;;;28.38;26.23;;;;;;;-143.39;100.00;64013.03;4951993;28;20054;-76
2024/02/15 04:41:05;;;;;;;54.72;50.67;;;;;;;-143.39;100.00;64013.03;4954090;28;20649;-76
2024/02/15 04:43:40;;;;;;;63.33;59.38;;;;;;;-143.39;100.00;64013.03;4952566;28;20050;-78
2024/02/15 04:46:09;;;;;;;54.90;51.28;;;;;;;-143.39;100.00;64013.03;4952472;28;20062;-78
2024/02/15 04:48:37;;;;;;;54.78;51.47;;;;;;;-143.39;100.00;64013.03;4950757;28;20130;-77
2024/02/15 04:52:24;;;;;;;46.85;44.05;;;;;;;0.00;100.00;101784.63;4932538;27;20422;-78
2024/02/15 04:54:54;;;;;;;52.35;49.15;;;;;;;0.23;100.00;101788.19;5023625;28;20072;-77
2024/02/15 04:57:23;;;;;;;50.80;47.35;;;;;;;0.34;100.00;101776.94;5021775;28;20072;-77
2024/02/15 04:59:50;;;;;;;40.42;38.03;;;;;;;0.01;100.00;101790.69;5010119;28;20050;-78
2024/02/15 05:02:17;;;;;;;34.25;32.35;;;;;;;0.09;100.00;101790.94;5014572;28;20046;-78
2024/02/15 05:04:47;;;;;;;35.65;33.45;;;;;;;-0.16;100.00;101791.91;5019884;28;20060;-78
2024/02/15 05:07:17;;;;;;;39.95;37.75;;;;;;;-0.15;100.00;101789.19;5025645;28;20053;-78
2024/02/15 05:09:47;;;;;;;37.38;35.47;;;;;;;0.01;100.00;101795.91;5024434;28;20129;-78
2024/02/15 05:12:23;;;;;;;25.30;23.50;;;;;;;-0.30;100.00;101804.16;5018650;28;20132;-78
2024/02/15 05:14:50;;;;;;;24.23;22.52;;;;;;;-0.21;100.00;101801.81;5022580;28;20062;-78
2024/02/15 05:17:17;;;;;;;27.45;25.35;;;;;;;2.42;100.00;101817.44;5024692;28;20045;-77
2024/02/15 05:19:46;;;;;;;49.25;45.53;;;;;;;8.36;100.00;101825.53;5021932;28;20046;-77
2024/02/15 05:22:19;;;;;;;31.27;29.08;;;;;;;7.23;100.00;101822.34;5025116;28;20041;-80
2024/02/15 05:25:07;;;;;;;23.60;22.10;;;;;;;0.41;100.00;101827.81;5011963;28;20065;-77
2024/02/15 05:27:35;;;;;;;28.38;26.58;;;;;;;-0.08;100.00;101820.91;5005411;28;20091;-78
2024/02/15 05:30:07;;;;;;;26.90;25.17;;;;;;;-0.31;100.00;101825.97;5010945;28;20100;-80
2024/02/15 05:32:41;;;;;;;25.73;24.10;;;;;;;-0.43;100.00;101828.63;5025081;28;20049;-80
2024/02/15 05:35:09;;;;;;;27.13;25.33;;;;;;;-0.43;100.00;101833.84;5025668;28;20136;-75
2024/02/15 05:37:36;;;;;;;26.23;24.42;;;;;;;-0.46;100.00;101838.31;5015373;28;20053;-76
2024/02/15 05:40:04;;;;;;;26.27;24.58;;;;;;;-0.99;100.00;101842.84;5008184;28;20074;-77
2024/02/15 05:42:32;;;;;;;25.40;23.75;;;;;;;-0.77;100.00;101838.78;5009252;28;20593;-77
2024/02/15 05:45:15;;;;;;;23.98;22.48;;;;;;;-0.56;100.00;101837.31;5003401;28;20069;-77
2024/02/15 05:47:44;;;;;;;25.40;23.70;;;;;;;-0.44;100.00;101842.63;5015093;28;20058;-79
2024/02/15 05:50:11;;;;;;;23.85;22.00;;;;;;;-0.60;100.00;101848.06;5007819;28;20058;-80
2024/02/15 05:52:38;;;;;;;24.65;22.98;;;;;;;-0.64;100.00;101854.44;5023064;28;20050;-79
2024/02/15 05:55:06;;;;;;;22.55;21.05;;;;;;;-0.62;100.00;101850.78;5020646;28;20179;-77
2024/02/15 05:57:37;;;;;;;22.42;20.92;;;;;;;-0.38;100.00;101855.25;5020823;28;20054;-77
2024/02/15 06:00:23;;;;;;;23.60;21.83;;;;;;;-0.41;100.00;101852.84;5014290;28;20125;-77
2024/02/15 06:02:55;;;;;;;22.20;20.70;;;;;;;-0.16;100.00;101865.84;5010902;28;20057;-76
2024/02/15 06:05:23;;;;;;;24.50;22.80;;;;;;;-0.13;100.00;101865.63;5007601;28;20057;-77
2024/02/15 06:07:58;;;;;;;27.50;25.58;;;;;;;0.08;100.00;101872.91;5009161;28;20050;-77
2024/02/15 06:10:26;;;;;;;26.17;24.27;;;;;;;0.18;100.00;101872.13;5003389;28;20116;-77
2024/02/15 06:12:57;;;;;;;29.35;26.90;;;;;;;0.34;100.00;101864.03;5002162;28;20047;-77
2024/02/15 06:15:24;;;;;;;30.27;28.00;;;;;;;0.70;100.00;101867.50;5011476;28;20526;-79
2024/02/15 06:17:53;;;;;;;30.80;28.42;;;;;;;0.85;100.00;101873.38;4998748;28;20054;-78
2024/02/15 06:20:21;;;;;;;31.45;28.48;;;;;;;1.18;100.00;101867.41;4992589;28;20057;-78
2024/02/15 06:22:48;;;;;;;33.63;31.25;;;;;;;1.43;100.00;101876.81;5003722;28;20581;-80
2024/02/15 06:25:20;;;;;;;34.33;31.83;;;;;;;1.32;100.00;101874.19;5000452;28;20108;-79
2024/02/15 06:27:48;;;;;;;32.28;29.55;;;;;;;1.65;100.00;101872.53;4996680;28;20042;-79
2024/02/15 06:41:21;;;;;;;34.90;32.03;;;;;;;2.28;100.00;101895.44;5002291;28;20085;-78
2024/02/15 06:43:48;;;;;;;38.63;35.63;;;;;;;2.83;100.00;101892.75;5007004;28;20046;-79
2024/02/15 06:46:19;;;;;;;38.15;34.83;;;;;;;2.81;100.00;101883.31;5005945;28;20050;-79
2024/02/15 06:48:46;;;;;;;39.88;36.88;;;;;;;3.43;100.00;101887.75;5004880;28;20057;-79
2024/02/15 06:51:16;;;;;;;38.90;36.20;;;;;;;3.90;100.00;101874.91;5005894;28;20140;-79
2024/02/15 06:53:44;;;;;;;45.40;42.08;;;;;;;3.88;100.00;101877.69;4997682;28;20145;-77
2024/02/15 06:56:11;;;;;;;39.63;36.90;;;;;;;3.84;100.00;101868.41;5009621;28;20050;-77
2024/02/15 06:58:40;;;;;;;40.50;37.80;;;;;;;4.72;100.00;101871.13;4998292;28;20115;-77
2024/02/15 07:01:09;;;;;;;38.50;35.28;;;;;;;4.32;100.00;101875.56;5017255;28;20046;-79
2024/02/15 07:03:39;;;;;;;41.00;38.05;;;;;;;4.87;100.00;101871.53;5003542;28;20076;-79
2024/02/15 07:06:08;;;;;;;34.67;32.28;;;;;;;4.59;100.00;101874.06;5010234;28;20755;-79
2024/02/15 07:08:37;;;;;;;38.15;35.45;;;;;;;5.21;100.00;101872.75;5006742;28;20053;-77
2024/02/15 07:11:04;;;;;;;41.67;38.20;;;;;;;5.25;100.00;101873.28;5007159;28;20049;-76
2024/02/15 07:13:33;;;;;;;37.42;34.72;;;;;;;5.44;100.00;101856.59;5005077;28;20056;-77
2024/02/15 07:16:01;;;;;;;37.83;34.95;;;;;;;6.53;100.00;101860.13;5002905;28;20230;-76
2024/02/15 07:18:29;;;;;;;34.60;32.10;;;;;;;6.28;100.00;101860.91;5005816;28;20049;-76
2024/02/15 07:21:01;;;;;;;35.53;32.75;;;;;;;6.80;100.00;101853.94;5002693;28;20133;-79
2024/02/15 07:23:28;;;;;;;38.05;35.35;;;;;;;6.86;100.00;101863.88;5000484;28;20057;-79
2024/02/15 07:25:57;;;;;;;35.22;32.63;;;;;;;7.22;100.00;101861.16;5004694;28;20111;-76
2024/02/15 07:28:36;;;;;;;34.97;32.55;;;;;;;7.65;100.00;101855.91;5006574;28;20054;-80
2024/02/15 07:31:06;;;;;;;35.90;33.67;;;;;;;7.36;100.00;101862.41;5005981;28;20046;-79
2024/02/15 07:33:35;;;;;;;35.10;32.80;;;;;;;7.19;100.00;101855.34;5019885;28;20693;-76
2024/02/15 07:36:07;;;;;;;36.55;33.85;;;;;;;8.00;100.00;101853.09;5019577;28;20040;-79
2024/02/15 07:38:36;;;;;;;31.48;29.23;;;;;;;8.34;100.00;101853.97;4999332;28;20624;-79
2024/02/15 07:41:03;;;;;;;36.20;33.80;;;;;;;8.60;100.00;101852.06;5004707;28;20042;-79
2024/02/15 07:43:34;;;;;;;34.22;31.65;;;;;;;8.16;100.00;101854.09;5013731;28;20077;-76
2024/02/15 07:46:26;;;;;;;34.70;32.38;;;;;;;8.19;100.00;101851.13;5009759;28;20699;-79
2024/02/15 07:48:53;;;;;;;36.33;34.03;;;;;;;8.26;100.00;101846.88;5008026;28;20045;-79
2024/02/15 07:51:23;;;;;;;34.20;31.90;;;;;;;8.16;100.00;101843.53;5001180;28;20050;-78
2024/02/15 07:53:51;;;;;;;32.67;30.40;;;;;;;8.34;100.00;101838.91;4997255;28;20041;-77
2024/02/15 07:56:21;;;;;;;34.47;31.35;;;;;;;8.35;100.00;101840.59;5006997;28;20053;-80
2024/02/15 07:58:51;;;;;;;33.28;30.98;;;;;;;7.97;100.00;101839.34;5004793;28;20045;-81
2024/02/15 08:01:20;;;;;;;33.90;31.50;;;;;;;8.88;100.00;101831.34;5002851;28;20523;-77
2024/02/15 08:03:48;;;;;;;32.17;30.02;;;;;;;9.59;100.00;101840.28;5000403;28;20108;-79
2024/02/15 08:06:18;;;;;;;31.08;29.17;;;;;;;9.42;100.00;101843.97;4999727;28;20149;-77
2024/02/15 08:08:51;;;;;;;30.45;28.55;;;;;;;9.98;100.00;101839.41;5000296;28;20125;-77
2024/02/15 08:11:21;;;;;;;28.40;26.50;;;;;;;9.77;100.00;101842.69;4999595;28;20142;-80
2024/02/15 08:13:54;;;;;;;26.05;24.25;;;;;;;9.61;100.00;101842.75;5004794;28;20442;-80
2024/02/15 08:16:22;;;;;;;27.15;25.35;;;;;;;9.39;100.00;101839.84;5001959;28;20073;-81
2024/02/15 08:18:54;;;;;;;27.00;25.20;;;;;;;10.69;100.00;101842.78;5007146;28;20079;-80
2024/02/15 08:21:27;;;;;;;27.73;25.92;;;;;;;10.97;100.00;101832.38;4999213;28;20050;-80
2024/02/15 08:23:56;;;;;;;26.42;24.52;;;;;;;10.81;100.00;101842.34;5008848;28;20062;-81
2024/02/15 08:26:24;;;;;;;32.17;30.17;;;;;;;10.65;100.00;101833.53;5012862;28;20053;-80
2024/02/15 08:28:55;;;;;;;28.05;26.00;;;;;;;11.31;100.00;101820.38;5007658;28;20049;-80
2024/02/15 08:31:35;;;;;;;27.65;25.85;;;;;;;10.96;100.00;101837.91;5007582;28;20054;-80
2024/02/15 08:34:05;;;;;;;26.77;24.92;;;;;;;11.31;100.00;101819.56;4996930;28;20057;-81
2024/02/15 08:36:34;;;;;;;27.42;25.42;;;;;;;11.40;100.00;101826.44;5008137;28;20492;-81
2024/02/15 08:39:04;;;;;;;27.80;25.80;;;;;;;11.96;100.00;101825.94;4990593;28;20054;-76
2024/02/15 08:41:34;;;;;;;28.48;26.27;;;;;;;11.69;100.00;101826.41;5004763;28;20518;-80
2024/02/15 08:44:05;;;;;;;32.00;29.70;;;;;;;12.07;100.00;101822.75;5008234;28;20053;-76
2024/02/15 08:46:36;;;;;;;27.88;25.98;;;;;;;10.69;100.00;101820.69;5004702;28;20046;-81
2024/02/15 08:49:05;;;;;;;26.40;24.50;;;;;;;11.49;100.00;101822.66;5005071;28;20058;-76
2024/02/15 08:51:32;;;;;;;28.10;26.10;;;;;;;11.19;100.00;101816.53;5001368;28;20112;-75
2024/02/15 08:54:07;;;;;;;25.90;24.00;;;;;;;10.88;100.00;101828.16;4993471;28;20062;-80
2024/02/15 08:56:54;;;;;;;25.95;24.05;;;;;;;11.07;100.00;101821.47;5007112;28;20569;-80
2024/02/15 08:59:31;;;;;;;26.33;24.42;;;;;;;10.21;100.00;101833.31;5009838;28;20053;-80
2024/02/15 09:02:14;;;;;;;32.63;30.52;;;;;;;10.97;100.00;101820.94;5002623;28;20585;-81
2024/02/15 09:04:45;;;;;;;26.85;25.05;;;;;;;10.26;100.00;101821.19;4996010;28;20137;-81
2024/02/15 09:07:24;;;;;;;37.67;26.23;;;;;;;9.44;100.00;101823.44;5006551;28;20054;-82
2024/02/15 09:09:55;;;;;;;27.10;25.30;;;;;;;9.96;100.00;101820.19;4997752;28;20100;-81
2024/02/15 09:12:25;;;;;;;27.30;25.50;;;;;;;10.56;100.00;101816.00;5003741;28;20528;-77
2024/02/15 09:14:55;;;;;;;26.88;25.08;;;;;;;10.51;100.00;101816.53;5005917;28;20049;-77
2024/02/15 09:17:26;;;;;;;25.77;24.17;;;;;;;11.45;100.00;101816.09;5001657;28;20058;-78
2024/02/15 09:19:56;;;;;;;28.17;26.38;;;;;;;12.47;100.00;101808.00;4994425;28;20137;-76
2024/02/15 09:22:22;;;;;;;27.88;25.83;;;;;;;11.61;100.00;101809.72;5006332;28;20046;-77
2024/02/15 09:24:49;;;;;;;25.45;23.85;;;;;;;11.88;100.00;101803.72;5003172;28;20444;-76
2024/02/15 09:27:18;;;;;;;26.48;24.77;;;;;;;12.00;100.00;101816.56;5006602;28;20510;-76
2024/02/15 09:29:44;;;;;;;28.65;26.67;;;;;;;12.43;100.00;101805.91;4989518;28;20158;-82
2024/02/15 09:32:11;;;;;;;27.30;25.60;;;;;;;13.09;100.00;101801.06;5005018;28;20053;-81
2024/02/15 09:34:38;;;;;;;26.52;24.83;;;;;;;13.26;100.00;101798.94;4998107;28;20076;-80
2024/02/15 09:37:08;;;;;;;31.23;28.95;;;;;;;14.17;100.00;101802.13;5009715;28;20693;-80
2024/02/15 09:39:37;;;;;;;30.80;28.70;;;;;;;13.71;100.00;101797.50;5003819;28;20078;-76
2024/02/15 09:42:06;;;;;;;26.85;24.95;;;;;;;12.42;100.00;101799.75;5007703;28;20050;-79
2024/02/15 09:44:44;;;;;;;27.70;25.70;;;;;;;14.11;100.00;101794.94;4998151;28;20120;-80
2024/02/15 09:47:15;;;;;;;31.23;29.33;;;;;;;12.73;100.00;101782.56;5003240;28;20713;-77
2024/02/15 09:49:42;;;;;;;25.27;23.38;;;;;;;14.24;100.00;101791.44;5009514;28;20133;-76
2024/02/15 09:52:15;;;;;;;25.60;23.70;;;;;;;12.36;100.00;101787.19;5003658;28;20057;-78
2024/02/15 09:54:44;;;;;;;45.28;42.58;;;;;;;10.73;100.00;101793.56;4998566;28;20065;-76
2024/02/15 09:57:11;;;;;;;44.58;41.88;;;;;;;11.83;100.00;101787.47;5001394;28;20053;-76
2024/02/15 09:59:41;;;;;;;42.90;40.30;;;;;;;10.39;100.00;101780.78;5005526;28;20068;-77
2024/02/15 10:02:13;;;;;;;38.33;35.92;;;;;;;11.84;100.00;101782.97;5001088;28;20085;-76
2024/02/15 10:04:42;;;;;;;36.80;34.70;;;;;;;12.58;100.00;101777.34;5008939;28;20133;-81
2024/02/15 10:07:10;;;;;;;31.85;29.73;;;;;;;10.74;100.00;101786.41;5004919;28;20053;-80
2024/02/15 10:09:37;;;;;;;24.88;23.08;;;;;;;11.32;100.00;101779.50;5012728;28;20046;-80
2024/02/15 10:12:09;;;;;;;24.25;22.75;;;;;;;10.74;100.00;101784.63;5010265;28;20046;-77
2024/02/15 10:14:38;;;;;;;27.05;25.02;;;;;;;9.51;100.00;101783.78;4996298;28;20054;-77
2024/02/15 10:17:11;;;;;;;27.67;25.77;;;;;;;10.46;100.00;101780.88;4991574;28;20060;-77
2024/02/15 10:19:38;;;;;;;41.03;38.63;;;;;;;10.68;100.00;101776.50;4997568;28;20046;-77
2024/02/15 10:22:09;;;;;;;40.45;37.95;;;;;;;12.11;100.00;101776.94;4993746;28;20068;-77
2024/02/15 10:24:36;;;;;;;46.17;43.08;;;;;;;12.60;100.00;101770.78;4999274;28;20062;-76
2024/02/15 10:27:10;;;;;;;37.95;35.45;;;;;;;12.61;100.00;101768.94;5007361;28;20100;-75
2024/02/15 10:29:39;;;;;;;31.83;29.63;;;;;;;13.57;100.00;101765.63;5002430;28;20069;-76
2024/02/15 10:32:10;;;;;;;38.42;35.92;;;;;;;12.99;100.00;101757.94;5007357;28;20158;-80
2024/02/15 10:34:45;;;;;;;37.80;35.40;;;;;;;10.52;100.00;101761.56;5007630;28;20050;-80
2024/02/15 10:37:13;;;;;;;30.88;28.88;;;;;;;12.31;100.00;101762.97;5012045;28;20065;-80
2024/02/15 10:39:41;;;;;;;25.73;24.02;;;;;;;9.68;100.00;101763.31;5011768;28;20060;-77
2024/02/15 10:42:10;;;;;;;25.92;24.23;;;;;;;10.37;100.00;101766.84;5010337;28;20060;-76
2024/02/15 10:44:38;;;;;;;28.35;25.80;;;;;;;10.14;100.00;101761.53;5009069;28;20133;-78
2024/02/15 10:47:10;;;;;;;23.65;22.05;;;;;;;11.44;100.00;101759.41;5011503;28;20049;-76
2024/02/15 10:49:38;;;;;;;36.15;33.85;;;;;;;11.18;100.00;101756.41;5005731;28;20058;-77
2024/02/15 10:52:10;;;;;;;33.80;31.70;;;;;;;11.33;100.00;101751.06;4998517;28;20498;-76
2024/02/15 10:54:47;;;;;;;34.25;32.10;;;;;;;11.44;100.00;101747.94;4995932;28;20076;-77
2024/02/15 10:57:18;;;;;;;37.80;35.50;;;;;;;11.84;100.00;101746.53;5012873;28;20058;-76
2024/02/15 10:59:57;;;;;;;36.63;34.33;;;;;;;12.48;100.00;101737.69;5010853;28;20049;-75
2024/02/15 11:02:29;;;;;;;26.80;24.90;;;;;;;12.24;100.00;101736.28;4994896;28;20046;-75
2024/02/15 11:05:03;;;;;;;;;;;;;;;10.38;100.00;101735.78;5006230;28;20100;-77
2024/02/15 11:07:33;;;;;;;29.20;27.30;;;;;;;12.07;100.00;101746.38;5010493;28;20320;-76
2024/02/15 11:10:04;;;;;;;29.23;27.33;;;;;;;13.34;100.00;101736.56;5001050;28;20049;-76
2024/02/15 11:12:31;;;;;;;27.10;25.30;;;;;;;14.56;100.00;101732.91;5005865;28;20061;-77
2024/02/15 11:14:58;;;;;;;28.73;26.75;;;;;;;12.67;100.00;101732.72;5001452;28;20327;-76
2024/02/15 11:17:55;;;;;;;29.17;27.27;;;;;;;12.47;100.00;101729.91;5004686;28;20414;-77
2024/02/15 11:20:49;;;;;;;28.17;26.35;;;;;;;14.00;100.00;101718.06;4997138;28;20054;-76
2024/02/15 11:23:26;;;;;;;36.08;33.58;;;;;;;12.75;100.00;101724.56;5002285;28;20061;-77
2024/02/15 11:25:54;;;;;;;35.70;33.30;;;;;;;13.92;100.00;101726.28;4999725;28;20707;-78
2024/02/15 11:28:41;;;;;;;37.67;35.28;;;;;;;15.42;100.00;101713.88;4992384;28;20049;-77